^^
Grace C. Lehan Memorial Weather Station Historical Data
Daily Summary for February 18, 2021 Units:  Both    English   Metric
Daily Weekly Monthly Yearly
  High: Low: Average:
Temperature: 83.6 °F /  28.7 °C 68.9 °F /  20.5 °C 75.8 °F /  24.3 °C
Dew Point: 73.9 °F /  23.3 °C 65.2 °F /  18.4 °C 69.4 °F /  20.8 °C
Humidity: 91% 71% 81%
Wind Speed: 0.4mph /  0.6km/h - 0mph /  0km/h
Wind Gust: 6mph /  9.7km/h - -
Wind- - SW
Pressure: 30.21 in /  1022.9 hPa 30.09 in /  1018.8 hPa -
Precipitation: 0.00 in /  0 mm    
 
 
Tabular Data for February 18, 2021
Time Temperature Dew Point Pressure Wind Wind Speed Wind Gust Humidity Rainfall Rate (Hourly) solar
00:04 71.5 °F /  21.9 °C 65.6 °F /  18.7 °C 30.17in /  1021.6hPa Calm     81.8% 0.00in /  0mm 0 W/m2
00:09 71.4 °F /  21.9 °C 65.6 °F /  18.7 °C 30.17in /  1021.6hPa Calm     82% 0.00in /  0mm 0 W/m2
00:14 71.4 °F /  21.9 °C 65.6 °F /  18.7 °C 30.17in /  1021.6hPa Calm     82% 0.00in /  0mm 0 W/m2
00:19 71.3 °F /  21.8 °C 65.5 °F /  18.6 °C 30.17in /  1021.6hPa Calm     82% 0.00in /  0mm 0 W/m2
00:24 71.3 °F /  21.8 °C 65.8 °F /  18.8 °C 30.17in /  1021.6hPa Calm     82.9% 0.00in /  0mm 0 W/m2
00:29 71.3 °F /  21.8 °C 65.5 °F /  18.6 °C 30.17in /  1021.6hPa Calm     82.1% 0.00in /  0mm 0 W/m2
00:34 71.2 °F /  21.8 °C 65.5 °F /  18.6 °C 30.17in /  1021.6hPa Calm     82.2% 0.00in /  0mm 0 W/m2
00:39 71.2 °F /  21.8 °C 65.7 °F /  18.7 °C 30.17in /  1021.6hPa Calm     83% 0.00in /  0mm 0 W/m2
00:44 71.1 °F /  21.7 °C 65.7 °F /  18.7 °C 30.17in /  1021.6hPa Calm     83% 0.00in /  0mm 0 W/m2
00:49 71 °F /  21.7 °C 65.6 °F /  18.7 °C 30.17in /  1021.6hPa Calm     83% 0.00in /  0mm 0 W/m2
00:54 71 °F /  21.7 °C 65.6 °F /  18.7 °C 30.17in /  1021.6hPa Calm     83% 0.00in /  0mm 0 W/m2
00:59 70.9 °F /  21.6 °C 65.5 °F /  18.6 °C 30.18in /  1021.9hPa Calm     83% 0.00in /  0mm 0 W/m2
01:04 70.8 °F /  21.6 °C 65.4 °F /  18.6 °C 30.18in /  1021.9hPa Calm     83% 0.00in /  0mm 0 W/m2
01:09 70.8 °F /  21.6 °C 65.7 °F /  18.7 °C 30.18in /  1021.9hPa Calm     83.9% 0.00in /  0mm 0 W/m2
01:14 70.7 °F /  21.5 °C 65.6 °F /  18.7 °C 30.18in /  1021.9hPa Calm     84% 0.00in /  0mm 0 W/m2
01:19 70.6 °F /  21.4 °C 65.5 °F /  18.6 °C 30.18in /  1021.9hPa Calm     84% 0.00in /  0mm 0 W/m2
01:24 70.5 °F /  21.4 °C 65.5 °F /  18.6 °C 30.18in /  1021.9hPa Calm     84% 0.00in /  0mm 0 W/m2
01:29 70.4 °F /  21.3 °C 65.4 °F /  18.6 °C 30.18in /  1021.9hPa Calm     84% 0.00in /  0mm 0 W/m2
01:34 70.4 °F /  21.3 °C 65.3 °F /  18.5 °C 30.18in /  1021.9hPa Calm     84% 0.00in /  0mm 0 W/m2
01:39 70.3 °F /  21.3 °C 65.2 °F /  18.4 °C 30.18in /  1021.9hPa Calm     84% 0.00in /  0mm 0 W/m2
01:44 70.3 °F /  21.3 °C 65.3 °F /  18.5 °C 30.18in /  1021.9hPa Calm     84.2% 0.00in /  0mm 0 W/m2
01:49 70.3 °F /  21.3 °C 65.5 °F /  18.6 °C 30.18in /  1021.9hPa Calm     84.8% 0.00in /  0mm 0 W/m2
01:54 70.2 °F /  21.2 °C 65.5 °F /  18.6 °C 30.18in /  1021.9hPa Calm     85% 0.00in /  0mm 0 W/m2
01:59 70.2 °F /  21.2 °C 65.5 °F /  18.6 °C 30.18in /  1021.9hPa Calm     85% 0.00in /  0mm 0 W/m2
02:04 70.2 °F /  21.2 °C 65.5 °F /  18.6 °C 30.18in /  1021.9hPa Calm     85% 0.00in /  0mm 0 W/m2
02:09 70.2 °F /  21.2 °C 65.5 °F /  18.6 °C 30.18in /  1021.9hPa Calm     85% 0.00in /  0mm 0 W/m2
02:14 70.1 °F /  21.2 °C 65.4 °F /  18.6 °C 30.18in /  1021.9hPa Calm     85% 0.00in /  0mm 0 W/m2
02:19 70.1 °F /  21.2 °C 65.5 °F /  18.6 °C 30.18in /  1021.9hPa Calm     85.5% 0.00in /  0mm 0 W/m2
02:24 70.1 °F /  21.2 °C 65.7 °F /  18.7 °C 30.18in /  1021.9hPa Calm     85.8% 0.00in /  0mm 0 W/m2
02:29 70.1 °F /  21.2 °C 65.7 °F /  18.7 °C 30.18in /  1021.9hPa Calm     86% 0.00in /  0mm 0 W/m2
02:34 70.1 °F /  21.2 °C 65.7 °F /  18.7 °C 30.18in /  1021.9hPa Calm     86% 0.00in /  0mm 0 W/m2
02:39 70.1 °F /  21.2 °C 65.7 °F /  18.7 °C 30.18in /  1021.9hPa Calm     86% 0.00in /  0mm 0 W/m2
02:44 70.1 °F /  21.2 °C 65.7 °F /  18.7 °C 30.18in /  1021.9hPa Calm     86% 0.00in /  0mm 0 W/m2
02:49 70.1 °F /  21.2 °C 65.7 °F /  18.7 °C 30.18in /  1021.9hPa Calm     86% 0.00in /  0mm 0 W/m2
02:54 70.1 °F /  21.2 °C 65.7 °F /  18.7 °C 30.18in /  1021.9hPa Calm     86% 0.00in /  0mm 0 W/m2
02:59 70.1 °F /  21.2 °C 65.7 °F /  18.7 °C 30.17in /  1021.6hPa Calm     86% 0.00in /  0mm 0 W/m2
03:04 70.1 °F /  21.2 °C 65.7 °F /  18.7 °C 30.17in /  1021.6hPa Calm     86% 0.00in /  0mm 0 W/m2
03:09 70.1 °F /  21.2 °C 65.7 °F /  18.7 °C 30.18in /  1021.9hPa Calm     86% 0.00in /  0mm 0 W/m2
03:14 70.1 °F /  21.2 °C 65.7 °F /  18.7 °C 30.18in /  1021.9hPa Calm     86% 0.00in /  0mm 0 W/m2
03:19 70.1 °F /  21.2 °C 65.7 °F /  18.7 °C 30.18in /  1021.9hPa Calm     86% 0.00in /  0mm 0 W/m2
03:24 70 °F /  21.1 °C 65.6 °F /  18.7 °C 30.18in /  1021.9hPa Calm     86% 0.00in /  0mm 0 W/m2
03:29 70 °F /  21.1 °C 65.6 °F /  18.7 °C 30.18in /  1021.9hPa Calm     86% 0.00in /  0mm 0 W/m2
03:34 69.9 °F /  21.1 °C 65.5 °F /  18.6 °C 30.18in /  1021.9hPa Calm     86% 0.00in /  0mm 0 W/m2
03:39 69.9 °F /  21.1 °C 65.5 °F /  18.6 °C 30.18in /  1021.9hPa Calm     86% 0.00in /  0mm 0 W/m2
03:44 69.8 °F /  21 °C 65.5 °F /  18.6 °C 30.18in /  1021.9hPa Calm     86% 0.00in /  0mm 0 W/m2
03:49 69.8 °F /  21 °C 65.4 °F /  18.6 °C 30.18in /  1021.9hPa Calm     86% 0.00in /  0mm 0 W/m2
03:54 69.8 °F /  21 °C 65.5 °F /  18.6 °C 30.18in /  1021.9hPa Calm     86.4% 0.00in /  0mm 0 W/m2
03:59 69.7 °F /  20.9 °C 65.7 °F /  18.7 °C 30.18in /  1021.9hPa Calm     87% 0.00in /  0mm 0 W/m2
04:04 69.8 °F /  21 °C 65.8 °F /  18.8 °C 30.18in /  1021.9hPa Calm     87% 0.00in /  0mm 0 W/m2
04:09 69.8 °F /  21 °C 65.9 °F /  18.8 °C 30.18in /  1021.9hPa Calm     87.5% 0.00in /  0mm 0 W/m2
04:14 69.8 °F /  21 °C 65.8 °F /  18.8 °C 30.18in /  1021.9hPa Calm     87% 0.00in /  0mm 0 W/m2
04:19 69.9 °F /  21.1 °C 65.8 °F /  18.8 °C 30.18in /  1021.9hPa Calm     87% 0.00in /  0mm 0 W/m2
04:24 69.9 °F /  21.1 °C 65.9 °F /  18.8 °C 30.18in /  1021.9hPa Calm     87% 0.00in /  0mm 0 W/m2
04:29 69.9 °F /  21.1 °C 65.9 °F /  18.8 °C 30.18in /  1021.9hPa Calm     87% 0.00in /  0mm 0 W/m2
04:34 69.9 °F /  21.1 °C 65.9 °F /  18.8 °C 30.18in /  1021.9hPa Calm     87% 0.00in /  0mm 0 W/m2
04:39 69.9 °F /  21.1 °C 65.9 °F /  18.8 °C 30.18in /  1021.9hPa Calm     87% 0.00in /  0mm 0 W/m2
04:44 69.9 °F /  21.1 °C 65.9 °F /  18.8 °C 30.18in /  1021.9hPa Calm     87% 0.00in /  0mm 0 W/m2
04:49 69.9 °F /  21.1 °C 65.9 °F /  18.8 °C 30.18in /  1021.9hPa Calm     87.1% 0.00in /  0mm 0 W/m2
04:54 69.8 °F /  21 °C 66.1 °F /  18.9 °C 30.18in /  1021.9hPa Calm     88% 0.00in /  0mm 0 W/m2
04:59 69.7 °F /  20.9 °C 66 °F /  18.9 °C 30.18in /  1021.9hPa Calm     88% 0.00in /  0mm 0 W/m2
05:04 69.7 °F /  20.9 °C 66 °F /  18.9 °C 30.18in /  1021.9hPa Calm     88% 0.00in /  0mm 0 W/m2
05:09 69.6 °F /  20.9 °C 65.9 °F /  18.8 °C 30.18in /  1021.9hPa Calm     88% 0.00in /  0mm 0 W/m2
05:14 69.6 °F /  20.9 °C 65.9 °F /  18.8 °C 30.18in /  1021.9hPa Calm     88% 0.00in /  0mm 0 W/m2
05:19 69.5 °F /  20.8 °C 65.8 °F /  18.8 °C 30.18in /  1021.9hPa Calm     88% 0.00in /  0mm 0 W/m2
05:24 69.5 °F /  20.8 °C 65.7 °F /  18.7 °C 30.19in /  1022.2hPa Calm     88% 0.00in /  0mm 0 W/m2
05:29 69.4 °F /  20.8 °C 65.7 °F /  18.7 °C 30.19in /  1022.2hPa Calm     88% 0.00in /  0mm 0 W/m2
05:34 69.3 °F /  20.7 °C 65.6 °F /  18.7 °C 30.19in /  1022.2hPa Calm     88% 0.00in /  0mm 0 W/m2
05:39 69.2 °F /  20.7 °C 65.5 °F /  18.6 °C 30.19in /  1022.2hPa Calm     88% 0.00in /  0mm 0 W/m2
05:44 69.2 °F /  20.7 °C 65.5 °F /  18.6 °C 30.19in /  1022.2hPa Calm     88% 0.00in /  0mm 0 W/m2
05:49 69.1 °F /  20.6 °C 65.7 °F /  18.7 °C 30.19in /  1022.2hPa Calm     89% 0.00in /  0mm 0 W/m2
05:54 69 °F /  20.6 °C 65.6 °F /  18.7 °C 30.19in /  1022.2hPa Calm     89% 0.00in /  0mm 0 W/m2
05:59 69 °F /  20.6 °C 65.6 °F /  18.7 °C 30.19in /  1022.2hPa Calm     89% 0.00in /  0mm 0 W/m2
06:04 68.9 °F /  20.5 °C 65.7 °F /  18.7 °C 30.19in /  1022.2hPa Calm     89.5% 0.00in /  0mm 0 W/m2
06:09 68.9 °F /  20.5 °C 65.8 °F /  18.8 °C 30.19in /  1022.2hPa Calm     90% 0.00in /  0mm 0 W/m2
06:14 68.9 °F /  20.5 °C 65.8 °F /  18.8 °C 30.19in /  1022.2hPa Calm     90% 0.00in /  0mm 7 W/m2
06:19 68.9 °F /  20.5 °C 65.9 °F /  18.8 °C 30.19in /  1022.2hPa Calm     90% 0.00in /  0mm 9 W/m2
06:24 69 °F /  20.6 °C 65.9 °F /  18.8 °C 30.19in /  1022.2hPa Calm     90% 0.00in /  0mm 12 W/m2
06:29 69 °F /  20.6 °C 65.9 °F /  18.8 °C 30.19in /  1022.2hPa Calm     90% 0.00in /  0mm 18 W/m2
06:34 69.1 °F /  20.6 °C 66 °F /  18.9 °C 30.20in /  1022.6hPa Calm     90% 0.00in /  0mm 25 W/m2
06:39 69.2 °F /  20.7 °C 66.4 °F /  19.1 °C 30.20in /  1022.6hPa Calm     90.9% 0.00in /  0mm 33 W/m2
06:44 69.3 °F /  20.7 °C 66.5 °F /  19.2 °C 30.20in /  1022.6hPa Calm     91% 0.00in /  0mm 42 W/m2
06:49 69.4 °F /  20.8 °C 66.5 °F /  19.2 °C 30.20in /  1022.6hPa Calm     90.7% 0.00in /  0mm 62 W/m2
06:54 69.5 °F /  20.8 °C 66.5 °F /  19.2 °C 30.20in /  1022.6hPa Calm     90.1% 0.00in /  0mm 62 W/m2
06:59 69.7 °F /  20.9 °C 66.9 °F /  19.4 °C 30.20in /  1022.6hPa Calm     91% 0.00in /  0mm 81 W/m2
07:04 69.9 °F /  21.1 °C 67.2 °F /  19.6 °C 30.20in /  1022.6hPa Calm     91% 0.00in /  0mm 202 W/m2
07:09 70.4 °F /  21.3 °C 67.7 °F /  19.8 °C 30.20in /  1022.6hPa Calm     91% 0.00in /  0mm 202 W/m2
07:14 71 °F /  21.7 °C 68.1 °F /  20.1 °C 30.21in /  1022.9hPa Calm     90.5% 0.00in /  0mm 186 W/m2
07:19 71.6 °F /  22 °C 68.3 °F /  20.2 °C 30.21in /  1022.9hPa Calm     89.3% 0.00in /  0mm 169 W/m2
07:24 72.2 °F /  22.3 °C 68.5 °F /  20.3 °C 30.21in /  1022.9hPa Calm     88.2% 0.00in /  0mm 148 W/m2
07:29 72.7 °F /  22.6 °C 68.7 °F /  20.4 °C 30.20in /  1022.6hPa Calm     87% 0.00in /  0mm 181 W/m2
07:34 73.3 °F /  22.9 °C 69.1 °F /  20.6 °C 30.20in /  1022.6hPa Calm     86.5% 0.00in /  0mm 239 W/m2
07:39 73.9 °F /  23.3 °C 69.1 °F /  20.6 °C 30.20in /  1022.6hPa Calm     85.1% 0.00in /  0mm 250 W/m2
07:44 74.5 °F /  23.6 °C 69.6 °F /  20.9 °C 30.21in /  1022.9hPa Calm     84.6% 0.00in /  0mm 250 W/m2
07:49 75.1 °F /  23.9 °C 69.6 °F /  20.9 °C 30.21in /  1022.9hPa Calm     83.1% 0.00in /  0mm 183 W/m2
07:54 75.4 °F /  24.1 °C 69.7 °F /  20.9 °C 30.21in /  1022.9hPa Calm     82.3% 0.00in /  0mm 239 W/m2
07:59 75.7 °F /  24.3 °C 69.8 °F /  21 °C 30.21in /  1022.9hPa Calm   3mph /  4.8km/h 82% 0.00in /  0mm 283 W/m2
08:09 76.5 °F /  24.7 °C 70.2 °F /  21.2 °C 30.21in /  1022.9hPa Calm     80.9% 0.00in /  0mm 360 W/m2
08:14 77.1 °F /  25.1 °C 70.2 °F /  21.2 °C 30.21in /  1022.9hPa Calm     79.4% 0.00in /  0mm 390 W/m2
08:19 77.6 °F /  25.3 °C 70.5 °F /  21.4 °C 30.21in /  1022.9hPa Calm     79% 0.00in /  0mm 390 W/m2
08:24 78 °F /  25.6 °C 70.6 °F /  21.4 °C 30.21in /  1022.9hPa Calm     78% 0.00in /  0mm 512 W/m2
08:29 78.7 °F /  25.9 °C 71.3 °F /  21.8 °C 30.20in /  1022.6hPa Calm     78.2% 0.00in /  0mm 469 W/m2
08:34 79.2 °F /  26.2 °C 71.1 °F /  21.7 °C 30.20in /  1022.6hPa Calm     76.5% 0.00in /  0mm 309 W/m2
08:39 79.5 °F /  26.4 °C 71.2 °F /  21.8 °C 30.20in /  1022.6hPa Calm     75.7% 0.00in /  0mm 512 W/m2
08:44 79.7 °F /  26.5 °C 71.3 °F /  21.8 °C 30.20in /  1022.6hPa Calm     75.6% 0.00in /  0mm 478 W/m2
08:49 79.9 °F /  26.6 °C 71.3 °F /  21.8 °C 30.20in /  1022.6hPa Calm     75.1% 0.00in /  0mm 417 W/m2
08:54 80 °F /  26.7 °C 71.3 °F /  21.8 °C 30.20in /  1022.6hPa Calm     75% 0.00in /  0mm 432 W/m2
08:59 80.2 °F /  26.8 °C 71.5 °F /  21.9 °C 30.20in /  1022.6hPa Calm     74.8% 0.00in /  0mm 394 W/m2
09:04 80.3 °F /  26.8 °C 71.3 °F /  21.8 °C 30.20in /  1022.6hPa Calm   1mph /  1.6km/h 74.2% 0.00in /  0mm 445 W/m2
09:09 80.5 °F /  26.9 °C 71.8 °F /  22.1 °C 30.20in /  1022.6hPa Calm   1mph /  1.6km/h 74.7% 0.00in /  0mm 526 W/m2
09:14 80.9 °F /  27.2 °C 71.9 °F /  22.2 °C 30.20in /  1022.6hPa SW 0.1mph /  0.2km/h 1mph /  1.6km/h 74.4% 0.00in /  0mm 311 W/m2
09:19 80.9 °F /  27.2 °C 71.7 °F /  22.1 °C 30.20in /  1022.6hPa Calm   1mph /  1.6km/h 73.6% 0.00in /  0mm 302 W/m2
09:24 80.7 °F /  27.1 °C 71.8 °F /  22.1 °C 30.19in /  1022.2hPa Calm   1mph /  1.6km/h 74.3% 0.00in /  0mm 237 W/m2
09:29 80.5 °F /  26.9 °C 71.9 °F /  22.2 °C 30.19in /  1022.2hPa Calm   1mph /  1.6km/h 75% 0.00in /  0mm 216 W/m2
09:34 80.4 °F /  26.9 °C 71.8 °F /  22.1 °C 30.19in /  1022.2hPa Calm   1mph /  1.6km/h 75% 0.00in /  0mm 246 W/m2
09:39 80.3 °F /  26.8 °C 71.9 °F /  22.2 °C 30.19in /  1022.2hPa Calm   1mph /  1.6km/h 75.7% 0.00in /  0mm 216 W/m2
09:44 80.2 °F /  26.8 °C 72.2 °F /  22.3 °C 30.20in /  1022.6hPa Calm   1mph /  1.6km/h 76.7% 0.00in /  0mm 262 W/m2
09:49 80.3 °F /  26.8 °C 72.5 °F /  22.5 °C 30.20in /  1022.6hPa Calm   1mph /  1.6km/h 77% 0.00in /  0mm 229 W/m2
09:54 80.5 °F /  26.9 °C 72.6 °F /  22.6 °C 30.20in /  1022.6hPa Calm   1mph /  1.6km/h 76.7% 0.00in /  0mm 244 W/m2
09:59 80.8 °F /  27.1 °C 72.8 °F /  22.7 °C 30.20in /  1022.6hPa SW 0.2mph /  0.3km/h 3mph /  4.8km/h 76.7% 0.00in /  0mm 267 W/m2
10:04 80.9 °F /  27.2 °C 72.3 °F /  22.4 °C 30.20in /  1022.6hPa SW 0.1mph /  0.2km/h 3mph /  4.8km/h 75% 0.00in /  0mm 234 W/m2
10:09 80.9 °F /  27.2 °C 72.3 °F /  22.4 °C 30.19in /  1022.2hPa Calm   3mph /  4.8km/h 75.1% 0.00in /  0mm 269 W/m2
10:14 80.9 °F /  27.2 °C 72.5 °F /  22.5 °C 30.19in /  1022.2hPa SW 0.4mph /  0.6km/h 4mph /  6.4km/h 75.5% 0.00in /  0mm 214 W/m2
10:19 81 °F /  27.2 °C 72.6 °F /  22.6 °C 30.19in /  1022.2hPa Calm   4mph /  6.4km/h 75.6% 0.00in /  0mm 183 W/m2
10:24 81.1 °F /  27.3 °C 72.8 °F /  22.7 °C 30.19in /  1022.2hPa Calm   4mph /  6.4km/h 76% 0.00in /  0mm 185 W/m2
10:29 81.1 °F /  27.3 °C 72.6 °F /  22.6 °C 30.19in /  1022.2hPa Calm   4mph /  6.4km/h 75.4% 0.00in /  0mm 195 W/m2
10:34 81.2 °F /  27.3 °C 72.6 °F /  22.6 °C 30.19in /  1022.2hPa Calm   4mph /  6.4km/h 75.2% 0.00in /  0mm 246 W/m2
10:39 81.3 °F /  27.4 °C 73.1 °F /  22.8 °C 30.19in /  1022.2hPa Calm   1mph /  1.6km/h 76.2% 0.00in /  0mm 271 W/m2
10:44 81.4 °F /  27.4 °C 73 °F /  22.8 °C 30.19in /  1022.2hPa Calm   1mph /  1.6km/h 75.9% 0.00in /  0mm 401 W/m2
10:49 81.5 °F /  27.5 °C 72.9 °F /  22.7 °C 30.19in /  1022.2hPa SW 0.1mph /  0.2km/h 2mph /  3.2km/h 75.3% 0.00in /  0mm 401 W/m2
10:54 81.7 °F /  27.6 °C 72.8 °F /  22.7 °C 30.19in /  1022.2hPa Calm   2mph /  3.2km/h 74.5% 0.00in /  0mm 253 W/m2
10:59 81.8 °F /  27.7 °C 73 °F /  22.8 °C 30.18in /  1021.9hPa Calm   2mph /  3.2km/h 74.7% 0.00in /  0mm 234 W/m2
11:04 82 °F /  27.8 °C 73.3 °F /  22.9 °C 30.18in /  1021.9hPa Calm   2mph /  3.2km/h 75% 0.00in /  0mm 320 W/m2
11:09 82.1 °F /  27.8 °C 72.9 °F /  22.7 °C 30.18in /  1021.9hPa Calm   1mph /  1.6km/h 73.9% 0.00in /  0mm 255 W/m2
11:14 82 °F /  27.8 °C 72.6 °F /  22.6 °C 30.18in /  1021.9hPa Calm   1mph /  1.6km/h 73% 0.00in /  0mm 236 W/m2
11:19 82 °F /  27.8 °C 72.7 °F /  22.6 °C 30.18in /  1021.9hPa Calm   1mph /  1.6km/h 73.5% 0.00in /  0mm 621 W/m2
11:24 82.1 °F /  27.8 °C 72.7 °F /  22.6 °C 30.18in /  1021.9hPa Calm   1mph /  1.6km/h 73.4% 0.00in /  0mm 538 W/m2
11:29 82.4 °F /  28 °C 73.3 °F /  22.9 °C 30.18in /  1021.9hPa WSW 0.3mph /  0.5km/h 3mph /  4.8km/h 74.1% 0.00in /  0mm 691 W/m2
11:34 82.9 °F /  28.3 °C 73.2 °F /  22.9 °C 30.18in /  1021.9hPa SSE 0.3mph /  0.5km/h 3mph /  4.8km/h 72.7% 0.00in /  0mm 459 W/m2
11:39 83.1 °F /  28.4 °C 72.7 °F /  22.6 °C 30.18in /  1021.9hPa Calm   3mph /  4.8km/h 71% 0.00in /  0mm 158 W/m2
11:44 83 °F /  28.3 °C 72.9 °F /  22.7 °C 30.18in /  1021.9hPa Calm   3mph /  4.8km/h 71.8% 0.00in /  0mm 155 W/m2
11:49 82.8 °F /  28.2 °C 73.2 °F /  22.9 °C 30.17in /  1021.6hPa Calm   3mph /  4.8km/h 72.8% 0.00in /  0mm 171 W/m2
11:54 82.6 °F /  28.1 °C 72.9 °F /  22.7 °C 30.17in /  1021.6hPa Calm   3mph /  4.8km/h 72.5% 0.00in /  0mm 251 W/m2
11:59 82.5 °F /  28.1 °C 73 °F /  22.8 °C 30.17in /  1021.6hPa Calm   3mph /  4.8km/h 73% 0.00in /  0mm 251 W/m2
12:09 82.7 °F /  28.2 °C 73.3 °F /  22.9 °C 30.17in /  1021.6hPa Calm   1mph /  1.6km/h 73.3% 0.00in /  0mm 269 W/m2
12:14 82.8 °F /  28.2 °C 73.6 °F /  23.1 °C 30.17in /  1021.6hPa Calm   2mph /  3.2km/h 73.7% 0.00in /  0mm 346 W/m2
12:19 83 °F /  28.3 °C 73.2 °F /  22.9 °C 30.17in /  1021.6hPa SE 0.1mph /  0.2km/h 2mph /  3.2km/h 72.5% 0.00in /  0mm 510 W/m2
12:24 83.2 °F /  28.4 °C 73.9 °F /  23.3 °C 30.17in /  1021.6hPa West 0.2mph /  0.3km/h 4mph /  6.4km/h 73.8% 0.00in /  0mm 471 W/m2
12:29 83.5 °F /  28.6 °C 73.6 °F /  23.1 °C 30.17in /  1021.6hPa Calm   4mph /  6.4km/h 72.4% 0.00in /  0mm 325 W/m2
12:34 83.6 °F /  28.7 °C 73.5 °F /  23.1 °C 30.17in /  1021.6hPa Calm   4mph /  6.4km/h 71.8% 0.00in /  0mm 253 W/m2
12:39 83.4 °F /  28.6 °C 73.3 °F /  22.9 °C 30.17in /  1021.6hPa Calm     71.6% 0.00in /  0mm 202 W/m2
12:44 83.3 °F /  28.5 °C 73.3 °F /  22.9 °C 30.17in /  1021.6hPa Calm     72% 0.00in /  0mm 195 W/m2
12:49 83.1 °F /  28.4 °C 73.1 °F /  22.8 °C 30.17in /  1021.6hPa Calm     71.9% 0.00in /  0mm 197 W/m2
12:54 82.9 °F /  28.3 °C 73.4 °F /  23 °C 30.17in /  1021.6hPa Calm   1mph /  1.6km/h 73% 0.00in /  0mm 209 W/m2
13:00 82.6 °F /  28.1 °C 73.1 °F /  22.8 °C 30.17in /  1021.6hPa Calm   2mph /  3.2km/h 73% 0.00in /  0mm 198 W/m2
14:00 83.1 °F /  28.4 °C 73.6 °F /  23.1 °C 30.16in /  1021.2hPa Calm   2mph /  3.2km/h 73% 0.00in /  0mm 284 W/m2
14:30 83 °F /  28.3 °C 73.5 °F /  23.1 °C 30.15in /  1020.9hPa Calm   4mph /  6.4km/h 73% 0.00in /  0mm 257 W/m2
15:00 83.4 °F /  28.6 °C 73.8 °F /  23.2 °C 30.14in /  1020.5hPa Calm   3mph /  4.8km/h 73% 0.00in /  0mm 211 W/m2
15:30 82.7 °F /  28.2 °C 73.6 °F /  23.1 °C 30.14in /  1020.5hPa Calm   6mph /  9.7km/h 74% 0.00in /  0mm 144 W/m2
16:09 82.6 °F /  28.1 °C 73.4 °F /  23 °C 30.13in /  1020.2hPa WSW 0.1mph /  0.2km/h 1mph /  1.6km/h 73.6% 0.00in /  0mm 156 W/m2
16:14 82.5 °F /  28.1 °C 73.4 °F /  23 °C 30.13in /  1020.2hPa Calm   1mph /  1.6km/h 74% 0.00in /  0mm 148 W/m2
16:19 82.5 °F /  28.1 °C 73.4 °F /  23 °C 30.12in /  1019.9hPa Calm   1mph /  1.6km/h 74.1% 0.00in /  0mm 162 W/m2
16:24 82.4 °F /  28 °C 73.1 °F /  22.8 °C 30.13in /  1020.2hPa WSW 0.2mph /  0.3km/h 2mph /  3.2km/h 73.5% 0.00in /  0mm 121 W/m2
16:29 82.3 °F /  27.9 °C 73.1 °F /  22.8 °C 30.13in /  1020.2hPa Calm   2mph /  3.2km/h 73.7% 0.00in /  0mm 107 W/m2
16:34 82.3 °F /  27.9 °C 73.3 °F /  22.9 °C 30.13in /  1020.2hPa Calm   2mph /  3.2km/h 74.3% 0.00in /  0mm 95 W/m2
16:39 82.2 °F /  27.9 °C 73.5 °F /  23.1 °C 30.13in /  1020.2hPa Calm   1mph /  1.6km/h 74.9% 0.00in /  0mm 84 W/m2
16:44 82.2 °F /  27.9 °C 73.5 °F /  23.1 °C 30.13in /  1020.2hPa Calm   1mph /  1.6km/h 75% 0.00in /  0mm 67 W/m2
16:49 82 °F /  27.8 °C 73.3 °F /  22.9 °C 30.13in /  1020.2hPa Calm   1mph /  1.6km/h 75% 0.00in /  0mm 84 W/m2
16:54 81.8 °F /  27.7 °C 73.2 °F /  22.9 °C 30.13in /  1020.2hPa Calm   1mph /  1.6km/h 75.2% 0.00in /  0mm 91 W/m2
16:59 81.7 °F /  27.6 °C 73.4 °F /  23 °C 30.13in /  1020.2hPa Calm   1mph /  1.6km/h 75.8% 0.00in /  0mm 100 W/m2
17:04 81.7 °F /  27.6 °C 73.3 °F /  22.9 °C 30.13in /  1020.2hPa Calm   1mph /  1.6km/h 75.8% 0.00in /  0mm 102 W/m2
17:09 81.6 °F /  27.6 °C 73.2 °F /  22.9 °C 30.13in /  1020.2hPa Calm   1mph /  1.6km/h 75.8% 0.00in /  0mm 91 W/m2
17:14 81.4 °F /  27.4 °C 73.1 °F /  22.8 °C 30.13in /  1020.2hPa Calm   1mph /  1.6km/h 76% 0.00in /  0mm 84 W/m2
17:19 81.2 °F /  27.3 °C 73.2 °F /  22.9 °C 30.13in /  1020.2hPa Calm   1mph /  1.6km/h 76.6% 0.00in /  0mm 98 W/m2
17:24 81.1 °F /  27.3 °C 73.2 °F /  22.9 °C 30.13in /  1020.2hPa Calm   1mph /  1.6km/h 77% 0.00in /  0mm 109 W/m2
17:29 81.1 °F /  27.3 °C 73.3 °F /  22.9 °C 30.12in /  1019.9hPa Calm   1mph /  1.6km/h 77.2% 0.00in /  0mm 127 W/m2
17:34 81.2 °F /  27.3 °C 73.4 °F /  23 °C 30.13in /  1020.2hPa Calm   1mph /  1.6km/h 77.4% 0.00in /  0mm 153 W/m2
17:39 81.2 °F /  27.3 °C 73.3 °F /  22.9 °C 30.12in /  1019.9hPa WSW 0.1mph /  0.2km/h 2mph /  3.2km/h 77% 0.00in /  0mm 153 W/m2
17:44 81.3 °F /  27.4 °C 73.2 °F /  22.9 °C 30.12in /  1019.9hPa Calm   2mph /  3.2km/h 76.5% 0.00in /  0mm 97 W/m2
17:49 81.3 °F /  27.4 °C 73 °F /  22.8 °C 30.12in /  1019.9hPa Calm   2mph /  3.2km/h 76% 0.00in /  0mm 74 W/m2
17:54 81.1 °F /  27.3 °C 72.8 °F /  22.7 °C 30.13in /  1020.2hPa Calm   2mph /  3.2km/h 76% 0.00in /  0mm 74 W/m2
17:59 80.9 °F /  27.2 °C 72.7 °F /  22.6 °C 30.13in /  1020.2hPa SW 0.1mph /  0.2km/h 2mph /  3.2km/h 76% 0.00in /  0mm 83 W/m2
18:04 80.7 °F /  27.1 °C 72.8 °F /  22.7 °C 30.13in /  1020.2hPa SW 0.1mph /  0.2km/h 2mph /  3.2km/h 76.9% 0.00in /  0mm 86 W/m2
18:09 80.6 °F /  27 °C 72.6 °F /  22.6 °C 30.12in /  1019.9hPa SW 0.1mph /  0.2km/h 3mph /  4.8km/h 76.8% 0.00in /  0mm 95 W/m2
18:14 80.5 °F /  26.9 °C 72.6 °F /  22.6 °C 30.12in /  1019.9hPa Calm   3mph /  4.8km/h 77% 0.00in /  0mm 88 W/m2
18:19 80.4 °F /  26.9 °C 72.5 °F /  22.5 °C 30.12in /  1019.9hPa Calm   3mph /  4.8km/h 77% 0.00in /  0mm 72 W/m2
18:24 80.4 °F /  26.9 °C 72.9 °F /  22.7 °C 30.12in /  1019.9hPa Calm   3mph /  4.8km/h 78% 0.00in /  0mm 69 W/m2
18:29 80.4 °F /  26.9 °C 72.7 °F /  22.6 °C 30.11in /  1019.5hPa SW 0.3mph /  0.5km/h 5mph /  8km/h 77.4% 0.00in /  0mm 69 W/m2
18:34 80.3 °F /  26.8 °C 72.5 °F /  22.5 °C 30.11in /  1019.5hPa SW 0.3mph /  0.5km/h 5mph /  8km/h 77% 0.00in /  0mm 54 W/m2
18:39 80.2 °F /  26.8 °C 72.4 °F /  22.4 °C 30.11in /  1019.5hPa SSW 0.1mph /  0.2km/h 3mph /  4.8km/h 77% 0.00in /  0mm 51 W/m2
18:44 80.1 °F /  26.7 °C 72.2 °F /  22.3 °C 30.11in /  1019.5hPa Calm   3mph /  4.8km/h 77% 0.00in /  0mm 53 W/m2
19:00 79.7 °F /  26.5 °C 72.2 °F /  22.3 °C 30.11in /  1019.5hPa Calm   3mph /  4.8km/h 78% 0.00in /  0mm 42 W/m2
19:30 78.8 °F /  26 °C 71.7 °F /  22.1 °C 30.12in /  1019.9hPa Calm   3mph /  4.8km/h 79% 0.00in /  0mm 10 W/m2
20:09 77.5 °F /  25.3 °C 71.5 °F /  21.9 °C 30.12in /  1019.9hPa Calm   3mph /  4.8km/h 81.9% 0.00in /  0mm 10 W/m2
20:14 77.3 °F /  25.2 °C 71.4 °F /  21.9 °C 30.11in /  1019.5hPa Calm   1mph /  1.6km/h 82% 0.00in /  0mm 0 W/m2
20:19 77.2 °F /  25.1 °C 71.3 °F /  21.8 °C 30.11in /  1019.5hPa Calm   1mph /  1.6km/h 82% 0.00in /  0mm 0 W/m2
20:24 77.1 °F /  25.1 °C 71.5 °F /  21.9 °C 30.11in /  1019.5hPa Calm   1mph /  1.6km/h 82.9% 0.00in /  0mm 0 W/m2
20:29 77 °F /  25 °C 71.4 °F /  21.9 °C 30.11in /  1019.5hPa Calm   1mph /  1.6km/h 83% 0.00in /  0mm 0 W/m2
20:34 76.9 °F /  24.9 °C 71.3 °F /  21.8 °C 30.11in /  1019.5hPa Calm   1mph /  1.6km/h 83% 0.00in /  0mm 0 W/m2
20:39 76.8 °F /  24.9 °C 71.4 °F /  21.9 °C 30.11in /  1019.5hPa Calm     83.6% 0.00in /  0mm 0 W/m2
20:44 76.7 °F /  24.8 °C 71.5 °F /  21.9 °C 30.11in /  1019.5hPa Calm     84% 0.00in /  0mm 0 W/m2
20:49 76.6 °F /  24.8 °C 71.1 °F /  21.7 °C 30.11in /  1019.5hPa Calm     83.1% 0.00in /  0mm 0 W/m2
20:54 76.5 °F /  24.7 °C 71 °F /  21.7 °C 30.12in /  1019.9hPa Calm     83.1% 0.00in /  0mm 0 W/m2
20:59 76.4 °F /  24.7 °C 70.9 °F /  21.6 °C 30.12in /  1019.9hPa Calm     83% 0.00in /  0mm 0 W/m2
21:04 76.4 °F /  24.7 °C 70.8 °F /  21.6 °C 30.12in /  1019.9hPa Calm     83% 0.00in /  0mm 0 W/m2
21:09 76.3 °F /  24.6 °C 70.5 °F /  21.4 °C 30.12in /  1019.9hPa Calm     82.3% 0.00in /  0mm 0 W/m2
21:14 76.2 °F /  24.6 °C 70.2 °F /  21.2 °C 30.12in /  1019.9hPa Calm     81.6% 0.00in /  0mm 0 W/m2
21:19 76.1 °F /  24.5 °C 69.7 °F /  20.9 °C 30.12in /  1019.9hPa South 0.1mph /  0.2km/h 1mph /  1.6km/h 80.6% 0.00in /  0mm 0 W/m2
21:24 76 °F /  24.4 °C 69.4 °F /  20.8 °C 30.12in /  1019.9hPa Calm   1mph /  1.6km/h 80% 0.00in /  0mm 0 W/m2
21:29 75.9 °F /  24.4 °C 69.3 °F /  20.7 °C 30.13in /  1020.2hPa Calm   1mph /  1.6km/h 80% 0.00in /  0mm 0 W/m2
21:34 75.9 °F /  24.4 °C 69.3 °F /  20.7 °C 30.13in /  1020.2hPa Calm   1mph /  1.6km/h 80% 0.00in /  0mm 0 W/m2
21:39 75.9 °F /  24.4 °C 69.3 °F /  20.7 °C 30.13in /  1020.2hPa Calm     80% 0.00in /  0mm 0 W/m2
21:44 75.8 °F /  24.3 °C 68.8 °F /  20.4 °C 30.12in /  1019.9hPa Calm     79% 0.00in /  0mm 0 W/m2
21:49 75.8 °F /  24.3 °C 68.8 °F /  20.4 °C 30.12in /  1019.9hPa Calm     79% 0.00in /  0mm 0 W/m2
21:54 75.7 °F /  24.3 °C 68.7 °F /  20.4 °C 30.12in /  1019.9hPa Calm     79% 0.00in /  0mm 0 W/m2
21:59 75.7 °F /  24.3 °C 68.7 °F /  20.4 °C 30.11in /  1019.5hPa Calm     79% 0.00in /  0mm 0 W/m2
22:04 75.6 °F /  24.2 °C 68.6 °F /  20.3 °C 30.11in /  1019.5hPa Calm     79% 0.00in /  0mm 0 W/m2
22:09 75.6 °F /  24.2 °C 68.6 °F /  20.3 °C 30.11in /  1019.5hPa Calm     79% 0.00in /  0mm 0 W/m2
22:14 75.5 °F /  24.2 °C 68.5 °F /  20.3 °C 30.11in /  1019.5hPa Calm     79% 0.00in /  0mm 0 W/m2
22:19 75.5 °F /  24.2 °C 68.5 °F /  20.3 °C 30.10in /  1019.2hPa Calm     79% 0.00in /  0mm 0 W/m2
22:24 75.4 °F /  24.1 °C 68.6 °F /  20.3 °C 30.10in /  1019.2hPa Calm     79.3% 0.00in /  0mm 0 W/m2
22:29 75.4 °F /  24.1 °C 68.8 °F /  20.4 °C 30.10in /  1019.2hPa Calm     80% 0.00in /  0mm 0 W/m2
22:34 75.3 °F /  24.1 °C 68.7 °F /  20.4 °C 30.10in /  1019.2hPa Calm     80% 0.00in /  0mm 0 W/m2
22:39 75.3 °F /  24.1 °C 68.7 °F /  20.4 °C 30.10in /  1019.2hPa Calm     80% 0.00in /  0mm 0 W/m2
22:44 75.3 °F /  24.1 °C 68.7 °F /  20.4 °C 30.10in /  1019.2hPa South 0.1mph /  0.2km/h 2mph /  3.2km/h 80% 0.00in /  0mm 0 W/m2
22:49 75.2 °F /  24 °C 68.6 °F /  20.3 °C 30.10in /  1019.2hPa Calm   2mph /  3.2km/h 80% 0.00in /  0mm 0 W/m2
22:54 75.1 °F /  23.9 °C 68.7 °F /  20.4 °C 30.10in /  1019.2hPa Calm   2mph /  3.2km/h 80.5% 0.00in /  0mm 0 W/m2
22:59 75 °F /  23.9 °C 68.8 °F /  20.4 °C 30.10in /  1019.2hPa Calm   2mph /  3.2km/h 81% 0.00in /  0mm 0 W/m2
23:04 75 °F /  23.9 °C 68.8 °F /  20.4 °C 30.10in /  1019.2hPa Calm   2mph /  3.2km/h 81% 0.00in /  0mm 0 W/m2
23:09 75 °F /  23.9 °C 68.8 °F /  20.4 °C 30.10in /  1019.2hPa Calm     81% 0.00in /  0mm 0 W/m2
23:14 74.9 °F /  23.8 °C 68.8 °F /  20.4 °C 30.10in /  1019.2hPa Calm     81.2% 0.00in /  0mm 0 W/m2
23:19 74.9 °F /  23.8 °C 69.1 °F /  20.6 °C 30.10in /  1019.2hPa Calm     82% 0.00in /  0mm 0 W/m2
23:24 74.9 °F /  23.8 °C 69 °F /  20.6 °C 30.10in /  1019.2hPa Calm     82% 0.00in /  0mm 0 W/m2
23:29 74.9 °F /  23.8 °C 69 °F /  20.6 °C 30.10in /  1019.2hPa Calm     82% 0.00in /  0mm 0 W/m2
23:34 74.9 °F /  23.8 °C 69 °F /  20.6 °C 30.09in /  1018.8hPa Calm     82% 0.00in /  0mm 0 W/m2
23:39 74.9 °F /  23.8 °C 69 °F /  20.6 °C 30.09in /  1018.8hPa Calm     82% 0.00in /  0mm 0 W/m2
23:44 74.8 °F /  23.8 °C 69.2 °F /  20.7 °C 30.09in /  1018.8hPa Calm     82.7% 0.00in /  0mm 0 W/m2
23:49 74.8 °F /  23.8 °C 69.3 °F /  20.7 °C 30.09in /  1018.8hPa Calm     83% 0.00in /  0mm 0 W/m2
23:54 74.7 °F /  23.7 °C 69.2 °F /  20.7 °C 30.09in /  1018.8hPa Calm     83% 0.00in /  0mm 0 W/m2
23:59 74.7 °F /  23.7 °C 69.2 °F /  20.7 °C 30.09in /  1018.8hPa Calm     83% 0.00in /  0mm 0 W/m2
Hartford County Weather
Compliments of Weather Underground - 2 mb